Time;durP1;ratioP1;P1;durP2;ratioP2;P2;SDS_P1;SDS_P2;PMS_P1;PMS_P2;Temp;Humidity;BMP_temperature;BMP_pressure;BME280_temperature;BME280_humidity;BME280_pressure;Samples;Min_cycle;Max_cycle;Signal;HPM_P1;HPM_P2
2021/04/24 00:01:18;;;;;;;22.57;10.37;;;3.90;99.90;;;;;;5074745;28;20446;-86
2021/04/24 00:03:45;;;;;;;15.20;5.30;;;3.80;99.90;;;;;;5074030;28;20458;-84
2021/04/24 00:06:12;;;;;;;22.70;4.80;;;3.80;99.90;;;;;;5075329;28;20454;-85
2021/04/24 00:08:38;;;;;;;8.60;3.10;;;3.90;99.90;;;;;;5075417;28;20465;-87
2021/04/24 00:11:05;;;;;;;13.23;5.93;;;4.00;99.90;;;;;;5074485;28;20545;-86
2021/04/24 00:13:31;;;;;;;9.50;2.47;;;4.30;99.90;;;;;;5073779;28;20800;-86
2021/04/24 00:15:58;;;;;;;12.00;4.93;;;4.70;96.10;;;;;;5074982;28;20537;-85
2021/04/24 00:18:25;;;;;;;10.83;2.30;;;4.80;88.80;;;;;;5074360;28;20876;-85
2021/04/24 00:20:51;;;;;;;11.90;2.40;;;5.10;79.10;;;;;;5075267;28;20482;-86
2021/04/24 00:23:18;;;;;;;17.93;6.00;;;5.10;71.80;;;;;;5073596;28;20490;-86
2021/04/24 00:25:46;;;;;;;16.90;2.87;;;5.10;67.30;;;;;;5073894;28;20454;-86
2021/04/24 00:28:13;;;;;;;15.03;3.27;;;5.20;65.50;;;;;;5074684;28;20969;-86
2021/04/24 00:30:42;;;;;;;10.40;3.13;;;5.20;61.90;;;;;;5073910;28;20819;-86
2021/04/24 00:33:09;;;;;;;9.10;3.10;;;5.20;63.70;;;;;;5073257;28;20546;-86
2021/04/24 00:35:36;;;;;;;7.13;1.93;;;5.00;63.40;;;;;;5073354;28;21021;-85
2021/04/24 00:38:04;;;;;;;9.03;3.43;;;5.10;63.30;;;;;;5074233;28;20486;-84
2021/04/24 00:40:31;;;;;;;7.87;2.47;;;5.00;62.50;;;;;;5073076;28;20466;-87
2021/04/24 00:42:58;;;;;;;11.50;2.60;;;5.00;61.90;;;;;;5074275;28;20455;-87
2021/04/24 00:45:25;;;;;;;8.90;3.10;;;4.90;63.40;;;;;;5076237;28;20451;-85
2021/04/24 00:47:53;;;;;;;8.93;2.20;;;4.60;65.40;;;;;;5076274;28;20969;-87
2021/04/24 00:50:22;;;;;;;14.30;3.97;;;4.50;65.70;;;;;;5076864;28;20557;-86
2021/04/24 00:52:50;;;;;;;14.43;2.97;;;4.40;69.90;;;;;;5078495;28;20857;-85
2021/04/24 00:55:16;;;;;;;11.13;3.93;;;4.30;71.50;;;;;;5080198;28;20450;-86
2021/04/24 00:57:44;;;;;;;8.23;2.47;;;4.10;72.90;;;;;;5079767;28;20478;-84
2021/04/24 01:00:14;;;;;;;8.10;2.53;;;3.90;78.80;;;;;;5079683;28;20519;-86
2021/04/24 01:02:40;;;;;;;7.23;2.10;;;3.60;92.00;;;;;;5079361;28;20450;-85
2021/04/24 01:05:09;;;;;;;10.30;3.10;;;3.40;99.90;;;;;;5077610;28;20481;-87
2021/04/24 01:07:35;;;;;;;21.87;4.87;;;3.10;99.90;;;;;;5080422;28;20461;-85
2021/04/24 01:10:04;;;;;;;11.37;5.17;;;3.00;99.90;;;;;;5079061;28;20469;-86
2021/04/24 01:12:31;;;;;;;19.33;5.63;;;2.90;99.90;;;;;;5078619;28;20462;-87
2021/04/24 01:14:59;;;;;;;10.73;6.30;;;2.90;99.90;;;;;;5077487;28;20196;-86
2021/04/24 01:17:25;;;;;;;12.93;6.57;;;2.80;99.90;;;;;;5079296;28;20477;-86
2021/04/24 01:19:52;;;;;;;30.03;11.10;;;2.60;99.90;;;;;;5080062;28;20202;-86
2021/04/24 01:22:19;;;;;;;8.60;5.33;;;2.60;99.90;;;;;;5079859;28;21531;-85
2021/04/24 01:24:46;;;;;;;11.68;3.60;;;2.30;99.90;;;;;;5077005;28;20476;-85
2021/04/24 01:27:12;;;;;;;8.13;4.10;;;2.40;99.90;;;;;;5080937;28;20188;-85
2021/04/24 01:29:40;;;;;;;14.97;3.67;;;2.50;99.90;;;;;;5079922;28;20450;-87
2021/04/24 01:32:07;;;;;;;18.52;6.18;;;2.50;99.90;;;;;;5080317;28;20551;-84
2021/04/24 01:34:34;;;;;;;8.70;3.80;;;2.50;99.90;;;;;;5077618;28;20557;-87
2021/04/24 01:37:01;;;;;;;7.28;3.05;;;2.30;99.90;;;;;;5081251;28;20538;-86
2021/04/24 01:39:29;;;;;;;8.27;4.60;;;2.20;99.90;;;;;;5080449;28;20196;-86
2021/04/24 01:41:56;;;;;;;6.27;2.83;;;2.10;99.90;;;;;;5080110;28;20493;-86
2021/04/24 01:44:23;;;;;;;11.23;6.43;;;2.10;99.90;;;;;;5077538;28;20962;-84
2021/04/24 01:46:49;;;;;;;8.57;2.93;;;2.20;99.90;;;;;;5080866;28;20537;-86
2021/04/24 01:49:16;;;;;;;8.33;3.80;;;2.30;99.90;;;;;;5079955;28;20482;-86
2021/04/24 01:51:42;;;;;;;8.33;3.50;;;2.40;99.90;;;;;;5079578;28;20828;-85
2021/04/24 01:54:09;;;;;;;7.90;3.28;;;2.40;99.90;;;;;;5076526;28;20990;-85
2021/04/24 01:56:47;;;;;;;6.70;3.77;;;2.30;99.90;;;;;;5079123;28;20250;-86
2021/04/24 01:59:15;;;;;;;7.77;4.77;;;2.20;99.90;;;;;;5079482;28;20454;-84
2021/04/24 02:01:43;;;;;;;9.83;4.53;;;2.20;99.90;;;;;;5080293;28;20465;-85
2021/04/24 02:04:09;;;;;;;9.37;5.30;;;2.10;99.90;;;;;;5076982;28;20543;-85
2021/04/24 02:06:36;;;;;;;7.20;5.88;;;1.90;99.90;;;;;;5080120;28;20482;-84
2021/04/24 02:09:07;;;;;;;13.73;9.63;;;1.80;99.90;;;;;;5079879;28;20185;-84
2021/04/24 02:11:34;;;;;;;14.60;13.15;;;1.70;99.90;;;;;;5079019;28;20504;-86
2021/04/24 02:14:06;;;;;;;13.83;12.67;;;1.70;99.90;;;;;;5077767;28;20260;-86
2021/04/24 02:16:33;;;;;;;15.80;14.37;;;1.60;99.90;;;;;;5080257;28;20454;-87
2021/04/24 02:18:59;;;;;;;17.47;16.37;;;1.60;99.90;;;;;;5079025;28;20474;-85
2021/04/24 02:21:25;;;;;;;20.93;19.60;;;1.60;99.90;;;;;;5078931;28;20486;-85
2021/04/24 02:23:56;;;;;;;25.20;23.47;;;1.60;99.90;;;;;;5076864;28;20454;-85
2021/04/24 02:26:22;;;;;;;29.35;27.30;;;1.50;99.90;;;;;;5079036;28;20493;-85
2021/04/24 02:28:49;;;;;;;31.13;28.07;;;1.50;99.90;;;;;;5081130;28;20227;-86
2021/04/24 02:31:16;;;;;;;34.93;33.07;;;1.50;99.90;;;;;;5079898;28;20450;-84
2021/04/24 02:33:42;;;;;;;36.83;34.75;;;1.50;99.90;;;;;;5076859;28;20465;-85
2021/04/24 02:36:11;;;;;;;38.58;36.47;;;1.50;99.90;;;;;;5078903;28;20199;-85
2021/04/24 02:38:37;;;;;;;36.50;34.65;;;1.40;99.90;;;;;;5078413;28;20243;-86
2021/04/24 02:41:06;;;;;;;39.55;37.45;;;1.30;99.90;;;;;;5078065;28;20205;-85
2021/04/24 02:43:33;;;;;;;41.07;38.17;;;1.30;99.90;;;;;;5075707;28;20231;-80
2021/04/24 02:45:59;;;;;;;37.03;34.92;;;1.30;99.90;;;;;;5073970;28;20806;-81
2021/04/24 02:48:27;;;;;;;38.97;36.88;;;1.10;99.90;;;;;;5073418;28;20283;-86
2021/04/24 02:50:53;;;;;;;40.50;38.00;;;1.00;99.90;;;;;;5073814;28;20758;-85
2021/04/24 02:53:19;;;;;;;42.53;40.43;;;1.00;99.90;;;;;;5073464;28;20494;-84
2021/04/24 02:55:46;;;;;;;45.77;43.40;;;1.00;99.90;;;;;;5072800;28;21023;-86
2021/04/24 02:58:14;;;;;;;51.08;48.67;;;1.10;99.90;;;;;;5072930;28;20481;-85
2021/04/24 03:00:40;;;;;;;47.67;45.33;;;1.00;99.90;;;;;;5073518;28;20192;-86
2021/04/24 03:03:09;;;;;;;47.40;45.15;;;1.00;99.90;;;;;;5073759;28;20242;-84
2021/04/24 03:05:38;;;;;;;48.05;45.45;;;1.10;99.90;;;;;;5073275;28;20220;-84
2021/04/24 03:08:06;;;;;;;47.85;45.35;;;1.00;99.90;;;;;;5072715;28;20192;-85
2021/04/24 03:10:36;;;;;;;49.42;46.83;;;1.10;99.90;;;;;;5071598;28;20201;-85
2021/04/24 03:13:09;;;;;;;52.17;48.90;;;1.10;99.90;;;;;;5070640;28;20192;-86
2021/04/24 03:15:37;;;;;;;55.60;53.10;;;1.00;99.90;;;;;;5073100;28;20450;-85
2021/04/24 03:18:04;;;;;;;52.13;49.80;;;1.00;99.90;;;;;;5063101;28;20521;-85
2021/04/24 03:20:31;;;;;;;54.53;51.03;;;0.90;99.90;;;;;;5053214;28;20205;-84
2021/04/24 03:23:03;;;;;;;53.73;51.37;;;0.80;99.90;;;;;;5070519;28;20586;-84
2021/04/24 03:25:30;;;;;;;52.15;49.65;;;0.90;99.90;;;;;;5071701;28;21016;-85
2021/04/24 03:27:56;;;;;;;56.65;53.80;;;0.90;99.90;;;;;;5072619;28;20714;-84
2021/04/24 03:30:25;;;;;;;57.75;55.10;;;0.90;99.90;;;;;;5072557;28;20655;-85
2021/04/24 03:32:51;;;;;;;55.72;53.33;;;0.90;99.90;;;;;;5072886;28;20192;-82
2021/04/24 03:35:18;;;;;;;60.67;57.67;;;0.90;99.90;;;;;;5072278;28;20239;-81
2021/04/24 03:37:47;;;;;;;65.70;62.50;;;1.00;99.90;;;;;;5072704;28;20299;-84
2021/04/24 03:40:17;;;;;;;62.72;59.90;;;1.00;99.90;;;;;;5072116;28;20538;-83
2021/04/24 03:42:43;;;;;;;64.73;61.17;;;1.00;99.90;;;;;;5072749;28;20230;-85
2021/04/24 03:45:18;;;;;;;65.03;62.03;;;1.10;99.90;;;;;;5073314;28;20455;-87
2021/04/24 03:47:46;;;;;;;64.03;60.50;;;0.90;99.90;;;;;;5072622;28;20214;-86
2021/04/24 03:50:16;;;;;;;62.72;60.00;;;1.00;99.90;;;;;;5072494;28;20832;-84
2021/04/24 03:52:43;;;;;;;66.50;63.30;;;1.00;99.90;;;;;;5072706;28;20554;-85
2021/04/24 03:55:10;;;;;;;71.32;68.03;;;1.00;99.90;;;;;;5072423;28;20553;-85
2021/04/24 03:57:37;;;;;;;65.00;62.10;;;1.10;99.90;;;;;;5072264;28;20255;-84
2021/04/24 04:00:08;;;;;;;68.45;65.53;;;1.20;99.90;;;;;;5072102;28;20350;-85
2021/04/24 04:02:48;;;;;;;54.65;52.20;;;1.10;99.90;;;;;;5052629;28;20575;-84
2021/04/24 04:05:15;;;;;;;61.28;58.28;;;1.20;99.90;;;;;;5067658;28;20188;-82
2021/04/24 04:07:42;;;;;;;61.47;58.67;;;1.10;99.90;;;;;;5072258;28;20203;-84
2021/04/24 04:10:11;;;;;;;49.70;47.30;;;1.10;99.90;;;;;;5071571;28;20196;-85
2021/04/24 04:12:39;;;;;;;46.28;43.88;;;1.00;99.90;;;;;;5072052;28;20606;-85
2021/04/24 04:15:10;;;;;;;40.95;38.95;;;1.10;99.90;;;;;;5074874;28;20199;-86
2021/04/24 04:17:38;;;;;;;33.17;29.92;;;1.10;99.90;;;;;;5073705;28;20223;-86
2021/04/24 04:20:06;;;;;;;21.65;20.42;;;1.40;99.90;;;;;;5073688;28;20197;-84
2021/04/24 04:22:32;;;;;;;10.25;9.45;;;1.40;99.90;;;;;;5072824;28;20188;-83
2021/04/24 04:24:59;;;;;;;8.38;6.80;;;1.50;99.90;;;;;;5075242;28;20329;-79
2021/04/24 04:27:27;;;;;;;8.00;5.93;;;1.50;99.90;;;;;;5076505;28;20200;-82
2021/04/24 04:29:55;;;;;;;7.47;3.73;;;1.50;99.90;;;;;;5076586;28;20459;-87
2021/04/24 04:32:21;;;;;;;6.87;4.07;;;1.40;99.90;;;;;;5076869;28;20492;-85
2021/04/24 04:34:50;;;;;;;19.67;4.85;;;1.40;99.90;;;;;;5071886;28;20466;-84
2021/04/24 04:37:16;;;;;;;11.40;5.20;;;1.30;99.90;;;;;;5076163;28;20255;-84
2021/04/24 04:39:45;;;;;;;7.43;4.20;;;1.20;99.90;;;;;;5074220;28;20515;-83
2021/04/24 04:42:12;;;;;;;6.30;3.27;;;1.30;99.90;;;;;;5056116;28;20534;-85
2021/04/24 04:44:38;;;;;;;7.60;5.22;;;1.20;99.90;;;;;;5056063;28;20452;-83
2021/04/24 04:47:05;;;;;;;7.30;5.07;;;1.20;99.90;;;;;;5056290;28;20668;-83
2021/04/24 04:49:32;;;;;;;8.95;6.82;;;1.20;99.90;;;;;;5068547;28;20470;-84
2021/04/24 04:51:58;;;;;;;11.23;7.37;;;1.20;99.90;;;;;;5075751;28;20215;-84
2021/04/24 04:54:24;;;;;;;6.43;4.28;;;1.30;99.90;;;;;;5074324;28;20545;-83
2021/04/24 04:56:51;;;;;;;8.90;6.27;;;1.20;99.90;;;;;;5076074;28;20207;-85
2021/04/24 04:59:18;;;;;;;7.18;6.47;;;1.20;99.90;;;;;;5075481;28;20553;-85
2021/04/24 05:01:44;;;;;;;25.93;9.30;;;1.30;99.90;;;;;;5075546;28;20284;-84
2021/04/24 05:04:11;;;;;;;10.85;10.05;;;1.30;99.90;;;;;;5075669;28;20992;-86
2021/04/24 05:06:38;;;;;;;9.85;8.95;;;1.40;99.90;;;;;;5075521;28;20228;-85
2021/04/24 05:09:05;;;;;;;19.20;17.60;;;1.50;99.90;;;;;;5075477;28;20207;-86
2021/04/24 05:11:31;;;;;;;25.67;14.05;;;1.60;99.90;;;;;;5074417;28;20454;-85
2021/04/24 05:13:57;;;;;;;21.53;10.50;;;1.70;99.90;;;;;;5075649;28;20724;-84
2021/04/24 05:16:24;;;;;;;11.10;10.03;;;1.80;99.90;;;;;;5075395;28;21014;-85
2021/04/24 05:18:50;;;;;;;8.47;7.50;;;1.80;99.90;;;;;;5075193;28;20486;-84
2021/04/24 05:21:18;;;;;;;9.13;6.82;;;2.00;99.90;;;;;;5075132;28;20451;-86
2021/04/24 05:23:44;;;;;;;8.57;7.68;;;2.20;99.90;;;;;;5075276;28;20589;-85
2021/04/24 05:26:11;;;;;;;14.83;10.23;;;2.20;99.90;;;;;;5074334;28;20192;-86
2021/04/24 05:28:39;;;;;;;13.83;11.40;;;2.40;99.90;;;;;;5075209;28;20455;-85
2021/04/24 05:31:06;;;;;;;16.98;9.20;;;2.40;99.90;;;;;;5075035;28;20465;-86
2021/04/24 05:33:33;;;;;;;10.30;8.40;;;2.60;99.90;;;;;;5071387;28;20217;-87
2021/04/24 05:36:10;;;;;;;14.87;8.87;;;2.70;99.90;;;;;;5075176;28;21002;-85
2021/04/24 05:38:37;;;;;;;9.60;6.20;;;2.90;99.90;;;;;;5075897;28;20490;-84
2021/04/24 05:41:11;;;;;;;10.53;6.33;;;3.10;99.90;;;;;;5073299;28;20811;-81
2021/04/24 05:43:40;;;;;;;14.07;7.97;;;3.20;99.90;;;;;;5074056;28;20474;-86
2021/04/24 05:46:07;;;;;;;11.27;3.87;;;3.40;99.90;;;;;;5075341;28;20542;-86
2021/04/24 05:48:33;;;;;;;12.90;5.80;;;3.50;99.90;;;;;;5074623;28;20948;-83
2021/04/24 05:51:00;;;;;;;10.07;4.20;;;3.70;99.90;;;;;;5075105;28;20470;-87
2021/04/24 05:53:26;;;;;;;14.83;5.90;;;3.90;99.90;;;;;;5074612;28;20465;-85
2021/04/24 05:55:54;;;;;;;17.60;5.33;;;4.10;99.90;;;;;;5073796;28;20477;-86
2021/04/24 05:58:20;;;;;;;11.83;4.70;;;4.50;99.90;;;;;;5075021;28;21031;-85
2021/04/24 06:00:46;;;;;;;9.33;3.70;;;4.80;99.90;;;;;;5074839;28;20450;-87
2021/04/24 06:03:13;;;;;;;9.30;4.07;;;5.30;99.90;;;;;;5074169;28;20543;-85
2021/04/24 06:05:39;;;;;;;13.03;3.40;;;5.60;96.60;;;;;;5074517;28;20481;-83
2021/04/24 06:08:08;;;;;;;10.20;2.93;;;5.90;84.10;;;;;;5074549;28;20493;-84
2021/04/24 06:10:37;;;;;;;15.40;3.50;;;6.40;67.80;;;;;;5073036;28;20463;-82
2021/04/24 06:13:05;;;;;;;9.20;2.70;;;6.70;50.70;;;;;;5073772;28;20977;-83
2021/04/24 06:15:32;;;;;;;10.90;2.97;;;6.70;38.50;;;;;;5074009;28;20519;-86
2021/04/24 06:17:58;;;;;;;8.63;2.67;;;6.70;34.70;;;;;;5072923;28;20473;-88
2021/04/24 06:20:25;;;;;;;8.17;1.73;;;6.70;33.40;;;;;;5077440;28;20453;-84
2021/04/24 06:22:51;;;;;;;9.70;3.60;;;6.70;35.20;;;;;;5075839;28;21024;-82
2021/04/24 06:25:19;;;;;;;9.50;2.57;;;6.90;40.00;;;;;;5077066;28;20467;-86
2021/04/24 06:27:46;;;;;;;8.37;1.67;;;6.90;34.80;;;;;;5077466;28;20461;-87
2021/04/24 06:30:16;;;;;;;13.13;2.90;;;6.90;33.30;;;;;;5067668;28;20453;-87
2021/04/24 06:32:43;;;;;;;8.90;3.03;;;7.00;33.40;;;;;;5073300;28;20486;-85
2021/04/24 06:35:11;;;;;;;9.67;2.87;;;7.10;33.50;;;;;;5073122;28;20467;-85
2021/04/24 06:37:42;;;;;;;11.27;2.50;;;7.20;32.80;;;;;;5073728;28;20496;-84
2021/04/24 06:40:14;;;;;;;7.10;1.40;;;7.30;33.00;;;;;;5072786;28;20448;-84
2021/04/24 06:42:40;;;;;;;18.87;4.03;;;7.30;28.70;;;;;;5072987;28;20479;-83
2021/04/24 06:45:09;;;;;;;8.30;1.93;;;7.40;28.20;;;;;;5073482;28;20447;-84
2021/04/24 06:47:40;;;;;;;12.97;3.00;;;7.50;26.10;;;;;;5073453;28;20455;-83
2021/04/24 06:50:12;;;;;;;10.27;2.13;;;7.50;26.10;;;;;;5073101;28;20470;-83
2021/04/24 06:52:38;;;;;;;8.47;2.13;;;7.50;26.10;;;;;;5073745;28;20454;-83
2021/04/24 06:55:07;;;;;;;20.00;4.07;;;7.60;26.10;;;;;;5072487;28;20451;-84
2021/04/24 06:57:39;;;;;;;9.73;3.30;;;7.70;25.60;;;;;;5070112;28;20678;-82
2021/04/24 07:00:07;;;;;;;11.10;2.97;;;7.90;26.20;;;;;;5072283;28;20453;-83
2021/04/24 07:02:34;;;;;;;8.80;2.20;;;7.90;22.70;;;;;;5071463;28;20446;-84
2021/04/24 07:05:12;;;;;;;11.93;4.03;;;8.20;24.00;;;;;;5071941;28;20867;-84
2021/04/24 07:07:40;;;;;;;16.03;4.97;;;8.20;25.90;;;;;;5071966;28;20460;-85
2021/04/24 07:10:16;;;;;;;12.07;4.20;;;8.50;26.00;;;;;;5070879;28;20950;-82
2021/04/24 07:12:46;;;;;;;17.50;3.83;;;8.70;21.20;;;;;;5071904;28;21001;-85
2021/04/24 07:15:18;;;;;;;8.70;2.17;;;8.70;19.70;;;;;;5072884;28;20259;-84
2021/04/24 07:17:44;;;;;;;17.30;2.93;;;8.60;18.20;;;;;;5073674;28;21107;-85
2021/04/24 07:20:13;;;;;;;13.70;3.40;;;8.80;17.90;;;;;;5073144;28;20465;-87
2021/04/24 07:22:40;;;;;;;9.90;2.53;;;8.80;19.80;;;;;;5072275;28;20584;-87
2021/04/24 07:25:07;;;;;;;9.90;2.10;;;9.00;21.00;;;;;;5071637;28;20447;-85
2021/04/24 07:27:34;;;;;;;15.23;4.17;;;8.90;18.00;;;;;;5073141;28;20454;-87
2021/04/24 07:30:16;;;;;;;9.00;1.30;;;8.90;17.30;;;;;;5073419;28;20458;-85
2021/04/24 07:32:44;;;;;;;10.90;1.90;;;8.80;15.20;;;;;;5073155;28;20576;-84
2021/04/24 07:35:15;;;;;;;10.33;2.53;;;9.00;16.10;;;;;;5072622;28;20504;-85
2021/04/24 07:37:44;;;;;;;14.30;3.83;;;9.10;12.70;;;;;;5072280;28;20482;-85
2021/04/24 07:40:13;;;;;;;11.97;3.53;;;9.20;12.40;;;;;;5068679;28;20450;-87
2021/04/24 07:42:50;;;;;;;9.40;1.90;;;9.20;10.90;;;;;;5073139;28;20501;-83
2021/04/24 07:45:17;;;;;;;10.97;2.73;;;9.30;10.20;;;;;;5072861;28;20450;-85
2021/04/24 07:47:48;;;;;;;9.70;2.23;;;9.40;12.90;;;;;;5072910;28;20462;-84
2021/04/24 07:50:21;;;;;;;13.60;2.77;;;9.30;11.10;;;;;;5072635;28;20568;-84
2021/04/24 07:52:59;;;;;;;9.97;3.40;;;9.20;9.40;;;;;;5072377;28;20446;-84
2021/04/24 07:55:25;;;;;;;14.47;3.77;;;9.60;11.60;;;;;;5071039;28;20844;-86
2021/04/24 07:57:54;;;;;;;9.83;1.73;;;9.70;8.30;;;;;;5071438;28;20474;-84
2021/04/24 08:00:24;;;;;;;10.30;1.90;;;9.70;8.90;;;;;;5072925;28;20455;-84
2021/04/24 08:02:50;;;;;;;12.80;2.60;;;9.80;7.20;;;;;;5072766;28;20447;-83
2021/04/24 08:05:27;;;;;;;15.60;3.67;;;10.20;5.20;;;;;;5072666;28;20548;-84
2021/04/24 08:07:55;;;;;;;15.60;3.50;;;10.30;4.90;;;;;;5073284;28;20459;-84
2021/04/24 08:10:30;;;;;;;12.07;2.30;;;10.20;4.00;;;;;;5071861;28;20499;-85
2021/04/24 08:12:58;;;;;;;14.53;2.57;;;10.20;3.10;;;;;;5071876;28;21067;-84
2021/04/24 08:15:26;;;;;;;18.73;3.40;;;10.20;2.80;;;;;;5070944;28;20490;-87
2021/04/24 08:17:53;;;;;;;13.30;2.40;;;10.70;4.30;;;;;;5071838;28;20217;-86
2021/04/24 08:20:20;;;;;;;13.83;2.93;;;10.70;1.60;;;;;;5071809;28;20461;-86
2021/04/24 08:22:52;;;;;;;21.60;3.33;;;10.80;1.00;;;;;;5071352;28;20489;-83
2021/04/24 08:25:28;;;;;;;16.93;2.60;;;10.50;1.00;;;;;;5071444;28;20241;-82
2021/04/24 08:27:54;;;;;;;13.77;2.30;;;10.30;2.10;;;;;;5071798;28;20444;-79
2021/04/24 08:30:26;;;;;;;15.80;2.77;;;10.20;1.70;;;;;;5069428;28;20540;-80
2021/04/24 08:36:01;;;;;;;12.40;2.57;;;10.80;1.00;;;;;;5031339;23;20902;-82
2021/04/24 08:41:18;;;;;;;12.57;1.50;;;11.00;1.00;;;;;;5045296;28;21005;-83
2021/04/24 08:43:56;;;;;;;13.47;2.10;;;10.80;1.00;;;;;;5038656;28;20457;-85
2021/04/24 08:46:23;;;;;;;15.63;2.57;;;10.90;1.00;;;;;;5052129;28;20450;-82
2021/04/24 08:48:51;;;;;;;13.60;2.43;;;11.30;1.80;;;;;;5047207;28;20863;-85
2021/04/24 08:51:32;;;;;;;13.20;1.73;;;11.10;1.30;;;;;;5032426;28;20866;-83
2021/04/24 08:54:00;;;;;;;14.07;2.40;;;11.30;1.00;;;;;;5033510;28;20455;-81
2021/04/24 08:56:28;;;;;;;14.07;2.07;;;11.30;1.00;;;;;;5032650;28;20912;-83
2021/04/24 09:05:17;;;;;;;13.80;1.50;;;11.10;1.00;;;;;;5002026;28;20500;-85
2021/04/24 09:07:47;;;;;;;14.70;1.90;;;11.30;1.00;;;;;;5018660;28;20463;-85
2021/04/24 09:17:50;;;;;;;;;;;;;;;;;;;;;
2021/04/24 09:31:41;;;;;;;21.80;3.07;;;13.00;1.00;;;;;;4853692;29;20197;-87
2021/04/24 09:34:11;;;;;;;17.47;3.10;;;13.10;1.00;;;;;;4979713;28;20567;-86
2021/04/24 09:37:27;;;;;;;18.67;3.53;;;13.40;1.00;;;;;;5016164;28;20451;-91
2021/04/24 09:39:55;;;;;;;16.57;2.73;;;13.70;1.00;;;;;;5019262;28;20464;-87
2021/04/24 09:42:33;;;;;;;18.50;3.57;;;13.10;1.00;;;;;;5019288;28;20453;-86
2021/04/24 09:46:05;;;;;;;;;;;;;;;;;;;;;
2021/04/24 09:48:32;;;;;;;20.77;3.73;;;13.10;1.00;;;;;;5019288;28;20449;-85
2021/04/24 09:51:12;;;;;;;17.07;2.60;;;13.30;1.00;;;;;;5022214;28;20502;-80
2021/04/24 09:53:46;;;;;;;17.23;2.23;;;13.20;1.00;;;;;;5007122;28;20551;-84
2021/04/24 09:59:06;;;;;;;19.70;3.30;;;13.10;1.00;;;;;;5022965;28;20476;-89
2021/04/24 10:01:33;;;;;;;18.40;3.07;;;13.70;1.00;;;;;;5027870;28;20460;-85
2021/04/24 10:04:01;;;;;;;18.57;3.03;;;13.90;1.00;;;;;;5024302;28;20488;-86
2021/04/24 10:06:36;;;;;;;18.80;3.07;;;13.70;1.00;;;;;;5028548;28;20460;-84
2021/04/24 10:09:33;;;;;;;17.20;2.63;;;13.40;1.00;;;;;;5033578;28;20487;-86
2021/04/24 10:12:20;;;;;;;20.60;3.17;;;14.00;1.00;;;;;;5034852;28;20456;-84
2021/04/24 10:14:59;;;;;;;16.97;2.00;;;13.50;1.00;;;;;;4996003;28;20544;-85
2021/04/24 10:17:35;;;;;;;17.33;2.10;;;13.40;1.00;;;;;;4995309;28;20533;-85
2021/04/24 10:20:25;;;;;;;18.37;3.10;;;13.40;1.00;;;;;;4997026;28;20496;-83
2021/04/24 10:23:05;;;;;;;20.77;3.53;;;13.30;1.00;;;;;;5034597;28;20543;-84
2021/04/24 10:25:59;;;;;;;17.00;2.93;;;14.20;1.00;;;;;;5028910;28;20543;-90
2021/04/24 10:28:26;;;;;;;17.33;2.00;;;14.20;1.00;;;;;;5015805;28;20461;-85
2021/04/24 10:30:55;;;;;;;27.40;3.37;;;14.20;1.00;;;;;;5021600;28;20496;-84
2021/04/24 10:33:24;;;;;;;19.40;3.30;;;14.70;1.00;;;;;;5034281;28;20503;-83
2021/04/24 10:35:50;;;;;;;19.17;2.40;;;15.70;1.00;;;;;;5027083;28;20480;-84
2021/04/24 10:38:18;;;;;;;24.00;3.17;;;15.10;1.00;;;;;;5014544;28;20472;-84
2021/04/24 10:41:02;;;;;;;19.40;3.20;;;14.70;1.00;;;;;;5013009;28;20941;-86
2021/04/24 10:43:35;;;;;;;21.33;4.03;;;15.30;1.00;;;;;;5018674;28;20436;-88
2021/04/24 10:46:43;;;;;;;22.83;3.70;;;15.50;1.00;;;;;;5033014;28;20805;-85
2021/04/24 10:50:00;;;;;;;32.33;3.87;;;15.40;1.00;;;;;;5014042;28;20460;-85
2021/04/24 10:53:22;;;;;;;;;;;;;;;;;;;;;
2021/04/24 10:59:39;;;;;;;;;;;;;;;;;;;;;
2021/04/24 11:25:51;;;;;;;23.97;4.37;;;15.60;1.00;;;;;;4830685;29;21055;-87
2021/04/24 11:29:06;;;;;;;26.33;4.83;;;16.00;1.00;;;;;;4839113;29;20465;-89
2021/04/24 11:32:47;;;;;;;;;;;;;;;;;;;;;
2021/04/24 11:35:23;;;;;;;22.30;4.13;;;15.90;1.00;;;;;;4875019;29;20475;-85
2021/04/24 11:41:59;;;;;;;;;;;;;;;;;;;;;
2021/04/24 11:45:06;;;;;;;;;;;;;;;;;;;;;
2021/04/24 11:57:48;;;;;;;;;;;;;;;;;;;;;
2021/04/24 12:00:44;;;;;;;22.93;4.40;;;16.90;1.00;;;;;;4877078;29;20539;-88
2021/04/24 12:27:36;;;;;;;;;;;;;;;;;;;;;
2021/04/24 12:40:50;;;;;;;;;;;;;;;;;;;;;
2021/04/24 12:53:31;;;;;;;26.60;4.20;;;19.40;1.00;;;;;;5022634;23;20481;-80
2021/04/24 12:56:39;;;;;;;;;;;;;;;;;;;;;
2021/04/24 13:24:36;;;;;;;;;;;;;;;;;;;;;
2021/04/24 13:27:41;;;;;;;23.00;2.53;;;18.70;1.00;;;;;;4869850;29;20516;-83
2021/04/24 13:33:18;;;;;;;24.57;2.63;;;19.00;1.00;;;;;;4883874;29;20446;-83
2021/04/24 13:42:05;;;;;;;24.27;2.07;;;20.10;1.00;;;;;;4987429;28;20440;-84
2021/04/24 13:44:31;;;;;;;28.80;3.20;;;20.40;1.00;;;;;;5121989;23;20820;-80
2021/04/24 14:14:34;;;;;;;28.63;2.90;;;21.40;1.00;;;;;;1394393;26;20530;-79
2021/04/24 14:17:01;;;;;;;32.10;3.57;;;21.20;1.00;;;;;;5054200;28;20447;-79
2021/04/24 14:19:27;;;;;;;30.50;3.37;;;20.20;1.00;;;;;;5054296;28;20483;-79
2021/04/24 14:21:54;;;;;;;28.00;3.03;;;19.60;1.00;;;;;;5054093;28;20538;-78
2021/04/24 14:24:21;;;;;;;29.57;3.20;;;20.10;1.00;;;;;;5053378;28;20447;-79
2021/04/24 14:26:47;;;;;;;28.50;3.50;;;20.20;1.00;;;;;;5053437;28;20448;-79
2021/04/24 14:29:18;;;;;;;27.53;3.00;;;19.80;1.00;;;;;;5053835;28;20584;-82
2021/04/24 14:31:46;;;;;;;29.40;3.90;;;19.80;1.00;;;;;;5053590;28;20558;-82
2021/04/24 14:34:12;;;;;;;27.80;3.83;;;20.20;1.00;;;;;;5053786;28;20539;-83
2021/04/24 15:08:47;;;;;;;27.40;2.93;;;19.00;1.00;;;;;;4780483;29;20460;-80
2021/04/24 15:11:26;;;;;;;29.23;4.00;;;18.30;1.00;;;;;;4901666;29;20457;-81
2021/04/24 15:14:18;;;;;;;24.80;3.40;;;17.30;1.00;;;;;;4951380;28;20487;-81
2021/04/24 15:16:45;;;;;;;23.53;2.30;;;16.70;1.00;;;;;;5029669;28;20448;-83
2021/04/24 15:19:12;;;;;;;24.27;3.47;;;16.70;1.00;;;;;;5033247;28;20563;-82
2021/04/24 15:21:45;;;;;;;22.67;2.43;;;16.60;1.00;;;;;;5028414;28;20456;-83
2021/04/24 15:24:12;;;;;;;30.50;2.57;;;16.40;1.00;;;;;;5032032;28;20456;-82
2021/04/24 15:26:39;;;;;;;22.57;3.03;;;16.40;1.00;;;;;;5030152;28;20452;-82
2021/04/24 15:29:06;;;;;;;22.33;2.90;;;16.30;1.00;;;;;;5031827;28;20543;-82
2021/04/24 15:31:32;;;;;;;23.20;3.47;;;16.30;1.00;;;;;;5024518;28;20453;-82
2021/04/24 15:34:05;;;;;;;20.90;2.43;;;16.60;1.00;;;;;;5032135;28;20539;-81
2021/04/24 15:36:34;;;;;;;21.67;3.33;;;16.90;1.00;;;;;;5031952;28;20504;-82
2021/04/24 15:39:05;;;;;;;22.30;3.77;;;17.20;1.00;;;;;;5031766;28;20484;-82
2021/04/24 15:42:09;;;;;;;20.83;2.93;;;16.90;1.00;;;;;;5030714;28;20505;-82
2021/04/24 15:44:35;;;;;;;22.33;3.53;;;17.30;1.00;;;;;;5031566;28;20456;-82
2021/04/24 15:47:01;;;;;;;25.60;4.43;;;16.50;1.00;;;;;;5031596;28;20476;-82
2021/04/24 15:49:28;;;;;;;22.47;3.40;;;16.40;1.00;;;;;;5031406;28;20931;-82
2021/04/24 15:51:54;;;;;;;22.20;3.67;;;16.40;1.00;;;;;;5039554;28;20575;-82
2021/04/24 15:54:20;;;;;;;23.87;4.53;;;16.30;1.00;;;;;;5044681;28;20495;-82
2021/04/24 15:56:47;;;;;;;21.50;3.70;;;16.50;1.00;;;;;;5035357;28;20443;-82
2021/04/24 15:59:14;;;;;;;25.50;3.80;;;16.10;1.00;;;;;;5051549;28;21057;-82
2021/04/24 16:01:40;;;;;;;23.00;2.90;;;15.60;1.00;;;;;;5047093;28;20484;-82
2021/04/24 16:04:07;;;;;;;28.40;3.50;;;15.50;1.00;;;;;;5031605;28;20997;-81
2021/04/24 16:06:33;;;;;;;21.70;4.60;;;15.00;1.00;;;;;;5035097;28;20551;-82
2021/04/24 16:09:00;;;;;;;20.27;3.40;;;15.30;1.00;;;;;;5052635;28;20455;-82
2021/04/24 16:11:26;;;;;;;22.93;3.87;;;15.70;1.00;;;;;;5050242;28;20487;-82
2021/04/24 16:13:52;;;;;;;19.60;3.10;;;16.10;1.00;;;;;;5032930;28;20803;-82
2021/04/24 16:16:20;;;;;;;17.83;2.37;;;15.90;1.00;;;;;;5032380;28;20447;-81
2021/04/24 16:18:46;;;;;;;21.70;2.57;;;16.00;1.00;;;;;;5035625;28;20477;-82
2021/04/24 16:21:12;;;;;;;21.30;3.93;;;16.10;1.00;;;;;;5017038;28;20543;-82
2021/04/24 16:23:39;;;;;;;21.87;3.03;;;15.90;1.00;;;;;;5031047;28;20534;-81
2021/04/24 16:26:07;;;;;;;22.37;3.43;;;16.00;1.00;;;;;;5047913;28;20451;-82
2021/04/24 16:28:35;;;;;;;22.73;5.40;;;16.30;1.00;;;;;;5050507;28;20456;-83
2021/04/24 16:31:02;;;;;;;21.43;3.30;;;16.00;1.00;;;;;;5054134;28;20451;-83
2021/04/24 16:33:29;;;;;;;21.00;2.40;;;16.40;1.00;;;;;;5056447;28;20459;-82
2021/04/24 16:35:55;;;;;;;19.40;2.70;;;16.50;1.00;;;;;;5038666;28;20459;-83
2021/04/24 16:38:22;;;;;;;20.97;2.83;;;16.90;1.00;;;;;;5036095;28;20972;-83
2021/04/24 16:40:48;;;;;;;23.47;4.13;;;16.40;1.00;;;;;;5036301;28;20986;-83
2021/04/24 16:43:16;;;;;;;25.23;4.47;;;15.90;1.00;;;;;;5036091;28;20455;-83
2021/04/24 16:45:44;;;;;;;21.00;2.80;;;15.40;1.00;;;;;;5043719;28;20448;-82
2021/04/24 16:48:11;;;;;;;20.07;3.40;;;15.00;1.00;;;;;;5037683;28;20509;-82
2021/04/24 16:50:40;;;;;;;19.00;2.13;;;14.90;1.00;;;;;;5045239;28;20444;-82
2021/04/24 16:53:06;;;;;;;28.20;4.10;;;15.10;1.00;;;;;;5035546;28;20480;-82